Time;durP1;ratioP1;P1;durP2;ratioP2;P2;SDS_P1;SDS_P2;PMS_P1;PMS_P2;Temp;Humidity;BMP_temperature;BMP_pressure;BME280_temperature;BME280_humidity;BME280_pressure;Samples;Min_cycle;Max_cycle;Signal;HPM_P1;HPM_P2
2021/04/21 06:10:47;;;;;;;14.47;7.30;;;;;;;7.45;73.91;100311.91;5306968;55;46680;-73
2021/04/21 06:15:53;;;;;;;16.23;8.23;;;;;;;7.58;73.91;100312.75;5000578;56;1134531;-73
2021/04/21 06:21:00;;;;;;;24.47;9.00;;;;;;;7.68;74.01;100309.00;5039315;57;1138825;-73
2021/04/21 06:26:05;;;;;;;28.20;10.43;;;;;;;7.76;74.04;100311.97;5090095;57;1139377;-77
2021/04/21 06:31:13;;;;;;;25.67;10.17;;;;;;;7.92;74.42;100317.86;5089734;57;1140611;-78
2021/04/21 06:36:20;;;;;;;21.60;10.43;;;;;;;8.16;74.88;100319.23;5023782;57;1140834;-77
2021/04/21 06:41:28;;;;;;;26.90;10.83;;;;;;;8.41;75.01;100319.66;4893100;57;1140552;-73
2021/04/21 06:46:34;;;;;;;20.03;10.83;;;;;;;8.44;74.54;100315.02;4860512;58;1141081;-76
2021/04/21 06:51:40;;;;;;;23.87;10.70;;;;;;;8.53;74.70;100313.53;4855294;59;1140942;-73
2021/04/21 06:56:48;;;;;;;15.87;8.30;;;;;;;8.63;74.62;100312.38;4855554;58;1141218;-72
2021/04/21 07:01:54;;;;;;;27.73;10.50;;;;;;;8.74;74.78;100318.54;4958770;56;1138843;-73
2021/04/21 07:07:01;;;;;;;22.73;9.27;;;;;;;8.87;74.48;100316.31;4995250;57;1140972;-75
2021/04/21 07:12:07;;;;;;;23.23;9.23;;;;;;;9.04;74.51;100313.27;5010409;56;1138845;-75
2021/04/21 07:17:13;;;;;;;23.10;8.87;;;;;;;9.21;74.22;100314.66;5020860;56;1138959;-73
2021/04/21 07:22:19;;;;;;;16.80;7.60;;;;;;;9.34;73.97;100314.09;5017656;56;1139099;-73
2021/04/21 07:27:25;;;;;;;25.00;10.60;;;;;;;9.47;72.89;100309.08;5011361;56;1139328;-74
2021/04/21 07:32:32;;;;;;;20.13;8.80;;;;;;;9.59;72.37;100312.60;5021603;56;1141148;-75
2021/04/21 07:37:42;;;;;;;23.17;8.60;;;;;;;9.74;72.45;100310.09;5017618;56;1139085;-74
2021/04/21 07:42:48;;;;;;;20.50;10.55;;;;;;;9.90;72.49;100312.39;5004882;56;1139070;-75
2021/04/21 07:47:53;;;;;;;17.07;7.58;;;;;;;10.05;71.81;100303.74;4973464;57;1140940;-74
2021/04/21 07:53:05;;;;;;;20.47;10.57;;;;;;;10.23;69.55;100308.09;5000440;57;1140950;-75
2021/04/21 07:58:11;;;;;;;24.18;9.93;;;;;;;10.39;70.48;100305.39;5027878;57;1143279;-76
2021/04/21 08:03:26;;;;;;;23.80;11.00;;;;;;;10.68;70.55;100302.23;5066821;57;1141222;-77
2021/04/21 08:08:35;;;;;;;21.97;10.23;;;;;;;10.94;69.98;100295.63;5065564;57;1143113;-75
2021/04/21 08:13:44;;;;;;;24.40;9.63;;;;;;;11.16;70.05;100300.80;5018426;57;1152604;-76
2021/04/21 08:18:50;;;;;;;18.48;8.50;;;;;;;11.27;68.93;100300.77;5012734;57;1140941;-74
2021/04/21 08:24:19;;;;;;;12.60;7.87;;;;;;;11.45;67.32;100303.68;5095780;57;1141291;-74
2021/04/21 08:29:25;;;;;;;13.90;7.73;;;;;;;11.62;67.00;100292.46;5085444;57;1140842;-72
2021/04/21 08:34:30;;;;;;;22.30;11.23;;;;;;;11.78;66.55;100307.08;5095597;57;1140627;-72
2021/04/21 08:39:37;;;;;;;24.53;11.10;;;;;;;11.89;67.26;100309.66;5096361;57;1142921;-73
2021/04/21 08:44:44;;;;;;;23.43;10.17;;;;;;;11.93;66.86;100307.92;5073943;57;1213395;-73
2021/04/21 08:49:50;;;;;;;20.07;9.50;;;;;;;12.00;66.25;100312.22;5095431;57;1142761;-73
2021/04/21 08:54:57;;;;;;;24.13;9.33;;;;;;;12.10;66.32;100306.45;5086483;57;1140600;-72
2021/04/21 09:00:05;;;;;;;25.00;10.07;;;;;;;12.21;66.21;100313.49;5088965;57;1141060;-73
2021/04/21 09:05:12;;;;;;;14.23;7.73;;;;;;;12.43;64.87;100319.05;5093886;57;1142915;-72
2021/04/21 09:10:20;;;;;;;16.87;9.83;;;;;;;12.58;64.35;100318.53;5095258;57;1140624;-73
2021/04/21 09:15:26;;;;;;;20.43;10.37;;;;;;;12.64;64.00;100317.16;5017321;57;1141253;-74
2021/04/21 09:20:31;;;;;;;16.50;9.47;;;;;;;12.67;64.50;100317.73;4995494;56;1143134;-74
2021/04/21 09:25:42;;;;;;;22.30;12.47;;;;;;;12.69;65.02;100317.08;4927368;58;1140574;-73
2021/04/21 09:30:58;;;;;;;31.62;14.43;;;;;;;12.84;66.06;100321.50;4961435;58;1143369;-74
2021/04/21 09:36:04;;;;;;;20.47;12.90;;;;;;;13.02;65.36;100320.32;4979161;57;1143340;-74
2021/04/21 09:41:18;;;;;;;20.73;10.10;;;;;;;13.11;65.05;100320.83;4994415;58;1142995;-74
2021/04/21 09:46:23;;;;;;;19.53;10.73;;;;;;;13.23;62.32;100317.56;4946378;58;1143136;-73
2021/04/21 09:51:31;;;;;;;21.50;12.10;;;;;;;13.26;61.01;100314.64;4891541;58;1143174;-73
2021/04/21 09:56:36;;;;;;;17.07;11.90;;;;;;;13.33;63.32;100308.60;4921737;58;1143095;-76
2021/04/21 10:01:44;;;;;;;21.05;11.10;;;;;;;13.42;63.58;100308.75;4933821;58;1143008;-74
2021/04/21 10:06:54;;;;;;;25.75;12.20;;;;;;;13.65;64.63;100304.77;4902827;57;1143131;-73
2021/04/21 10:12:27;;;;;;;18.37;10.43;;;;;;;13.79;62.37;100297.66;4943565;57;1142914;-73
2021/04/21 10:17:35;;;;;;;15.30;7.97;;;;;;;13.93;63.58;100293.20;4957022;57;1143320;-76
2021/04/21 10:22:43;;;;;;;16.17;10.57;;;;;;;14.23;62.84;100294.74;4978203;57;1141262;-74
2021/04/21 10:27:48;;;;;;;16.70;9.75;;;;;;;14.36;62.22;100291.76;4985551;57;1143205;-74
2021/04/21 10:32:55;;;;;;;13.87;10.23;;;;;;;14.53;61.32;100286.12;4986339;57;1145894;-78
2021/04/21 10:38:01;;;;;;;14.53;10.55;;;;;;;14.74;60.31;100286.70;5071643;57;1142668;-73
2021/04/21 10:43:07;;;;;;;15.77;9.53;;;;;;;14.94;59.57;100291.39;5062165;56;1143008;-78
2021/04/21 10:48:15;;;;;;;17.13;10.50;;;;;;;15.10;57.67;100280.88;5017037;57;1140523;-79
2021/04/21 10:53:30;;;;;;;20.90;11.67;;;;;;;15.18;56.95;100278.27;4946292;58;1142733;-74
2021/04/21 10:58:54;;;;;;;12.50;9.33;;;;;;;15.25;56.14;100275.83;5007118;57;1143040;-75
2021/04/21 11:04:03;;;;;;;12.93;7.70;;;;;;;15.49;56.83;100277.33;5030553;57;1140957;-73
2021/04/21 11:09:13;;;;;;;10.90;6.67;;;;;;;15.73;54.28;100272.20;5038112;57;1141237;-72
2021/04/21 11:14:49;;;;;;;10.30;6.70;;;;;;;16.00;50.72;100273.00;5028323;57;1141266;-74
2021/04/21 11:19:55;;;;;;;9.33;6.60;;;;;;;16.09;50.51;100274.69;5001700;58;1141199;-72
2021/04/21 11:25:24;;;;;;;6.95;5.47;;;;;;;16.33;48.83;100272.13;5015330;57;1139139;-76
2021/04/21 11:30:44;;;;;;;12.70;6.93;;;;;;;16.33;46.23;100267.29;5024883;57;1138950;-74
2021/04/21 11:35:50;;;;;;;11.05;5.55;;;;;;;16.32;49.46;100265.12;4995242;57;1141049;-73
2021/04/21 11:41:17;;;;;;;9.25;5.20;;;;;;;16.50;47.95;100268.48;5017698;57;1141016;-73
2021/04/21 11:47:02;;;;;;;9.83;5.43;;;;;;;16.79;47.02;100265.42;5015764;57;1138912;-73
2021/04/21 11:52:08;;;;;;;11.67;5.33;;;;;;;17.03;47.21;100258.41;5039701;57;1138529;-73
2021/04/21 11:57:13;;;;;;;10.87;5.67;;;;;;;17.17;46.28;100254.56;5028595;58;1140759;-73
2021/04/21 12:02:19;;;;;;;9.03;5.30;;;;;;;17.36;46.22;100256.06;5026910;57;1140812;-74
2021/04/21 12:07:25;;;;;;;7.83;5.00;;;;;;;17.62;44.74;100248.31;5006976;57;1138601;-74
2021/04/21 12:12:31;;;;;;;6.27;3.07;;;;;;;17.72;42.55;100250.35;5002222;57;1138877;-74
2021/04/21 12:17:39;;;;;;;6.47;4.67;;;;;;;17.83;37.32;100252.65;5000377;57;1138789;-74
2021/04/21 12:22:45;;;;;;;5.70;4.10;;;;;;;17.74;39.67;100256.33;5005160;57;1138751;-74
2021/04/21 12:27:55;;;;;;;3.27;2.98;;;;;;;17.59;40.38;100232.10;4980302;57;1138597;-73
2021/04/21 12:33:10;;;;;;;3.87;2.73;;;;;;;17.71;38.19;100234.80;5017059;57;1138485;-73
2021/04/21 12:38:20;;;;;;;4.10;2.43;;;;;;;17.92;39.45;100230.19;5005895;58;1138803;-74
2021/04/21 12:43:35;;;;;;;5.80;2.43;;;;;;;18.01;36.30;100222.98;5017023;57;1138535;-75
2021/04/21 12:48:51;;;;;;;2.90;2.70;;;;;;;18.10;31.84;100219.25;5017286;57;1138640;-74
2021/04/21 12:53:58;;;;;;;5.93;2.73;;;;;;;18.11;30.33;100223.09;5011224;57;1138993;-75
2021/04/21 12:59:17;;;;;;;3.22;2.47;;;;;;;18.04;31.67;100211.91;5005706;57;1138775;-75
2021/04/21 13:04:22;;;;;;;5.10;2.40;;;;;;;18.24;33.72;100209.14;5011435;57;1139178;-74
2021/04/21 13:09:31;;;;;;;4.03;2.60;;;;;;;18.34;30.85;100202.20;4997126;57;1138991;-74
2021/04/21 13:14:43;;;;;;;5.40;2.87;;;;;;;18.25;32.97;100200.09;5019371;57;1139299;-76
2021/04/21 13:19:58;;;;;;;6.90;3.03;;;;;;;18.25;31.24;100192.06;4953419;57;1187870;-75
2021/04/21 13:25:06;;;;;;;2.40;2.08;;;;;;;18.27;33.33;100185.53;4994749;57;1138846;-74
2021/04/21 13:30:16;;;;;;;2.76;2.38;;;;;;;18.31;31.64;100183.84;5028235;57;1139119;-77
2021/04/21 13:35:24;;;;;;;4.30;3.17;;;;;;;18.02;32.02;100182.67;5044317;57;1138930;-76
2021/04/21 13:40:31;;;;;;;4.70;2.47;;;;;;;18.10;34.83;100172.41;5043444;57;1138719;-74
2021/04/21 13:45:36;;;;;;;3.80;3.50;;;;;;;18.29;34.26;100169.30;5011578;58;1138620;-78
2021/04/21 13:50:42;;;;;;;6.30;3.90;;;;;;;18.47;34.51;100159.64;5029087;57;1138821;-77
2021/04/21 13:55:49;;;;;;;9.20;3.83;;;;;;;18.54;33.88;100158.73;5016410;57;1138895;-77
2021/04/21 14:00:55;;;;;;;5.53;3.02;;;;;;;18.66;34.81;100156.48;5014553;57;1139133;-76
2021/04/21 14:06:01;;;;;;;3.60;2.35;;;;;;;18.75;33.77;100139.85;5036448;57;1139108;-74
2021/04/21 14:11:06;;;;;;;4.67;2.85;;;;;;;18.85;32.72;100139.91;4972027;58;1139088;-79
2021/04/21 14:16:12;;;;;;;4.03;2.85;;;;;;;18.81;32.10;100148.48;4989613;57;1138905;-76
2021/04/21 14:21:19;;;;;;;7.47;3.45;;;;;;;18.73;32.17;100147.23;5031189;56;1139487;-75
2021/04/21 14:26:25;;;;;;;8.68;4.00;;;;;;;18.52;33.24;100143.34;5012962;57;1139313;-77
2021/04/21 14:31:31;;;;;;;7.37;3.52;;;;;;;18.41;33.00;100147.78;5013530;57;1138875;-74
2021/04/21 14:36:38;;;;;;;3.90;2.97;;;;;;;18.43;33.55;100148.44;5013052;57;1138960;-74
2021/04/21 14:41:44;;;;;;;12.30;3.90;;;;;;;18.21;32.17;100143.90;5013771;57;1138852;-76
2021/04/21 14:46:50;;;;;;;12.90;3.77;;;;;;;17.92;33.01;100149.92;5014035;57;1141053;-72
2021/04/21 14:51:57;;;;;;;8.35;4.15;;;;;;;17.70;33.30;100142.69;5014696;57;1140989;-77
2021/04/21 14:57:06;;;;;;;7.55;4.67;;;;;;;17.42;33.10;100145.75;5014252;57;1139342;-77
2021/04/21 15:02:12;;;;;;;9.67;3.83;;;;;;;17.19;34.25;100144.83;5014227;57;1138904;-74
2021/04/21 15:07:18;;;;;;;7.00;4.20;;;;;;;17.09;34.69;100146.86;5013625;57;1139451;-75
2021/04/21 15:12:24;;;;;;;15.63;7.37;;;;;;;17.06;35.76;100145.86;5012608;57;1139355;-77
2021/04/21 15:17:31;;;;;;;6.50;3.50;;;;;;;17.18;36.43;100141.32;5009542;57;1140939;-77
2021/04/21 15:22:36;;;;;;;4.87;3.90;;;;;;;17.26;35.89;100130.30;5013338;57;1138467;-74
2021/04/21 15:27:44;;;;;;;7.33;3.47;;;;;;;17.15;35.99;100130.12;5011729;57;1138615;-74
2021/04/21 15:32:51;;;;;;;9.80;3.87;;;;;;;17.00;35.08;100123.31;5009151;57;1138712;-74
2021/04/21 15:37:56;;;;;;;5.37;3.25;;;;;;;16.75;35.37;100129.20;5011607;57;1139154;-75
2021/04/21 15:43:02;;;;;;;3.83;3.15;;;;;;;16.64;37.13;100139.40;5009044;57;1139132;-76
2021/04/21 15:48:08;;;;;;;5.87;3.70;;;;;;;16.59;36.64;100137.69;5012992;57;1139019;-76
2021/04/21 15:53:14;;;;;;;7.43;4.07;;;;;;;16.48;36.83;100137.53;5012866;57;1139155;-76
2021/04/21 15:58:28;;;;;;;4.93;2.93;;;;;;;16.40;37.14;100142.84;5012259;57;1138899;-76
2021/04/21 16:03:27;;;;;;;9.70;3.97;;;;;;;16.30;37.51;100138.17;5011172;57;1139255;-76
2021/04/21 16:08:34;;;;;;;9.03;3.93;;;;;;;16.25;37.47;100145.83;5012409;57;1139445;-76
2021/04/21 16:13:40;;;;;;;495.53;367.67;;;;;;;16.19;38.06;100142.81;5013150;57;1138860;-75
2021/04/21 16:18:46;;;;;;;16.43;7.57;;;;;;;16.14;38.62;100142.98;5012144;57;1147491;-74
2021/04/21 16:23:51;;;;;;;43.73;32.07;;;;;;;16.08;38.52;100149.80;5034681;56;1141228;-75
2021/04/21 16:28:57;;;;;;;14.20;10.38;;;;;;;16.08;38.09;100139.13;5095138;56;1143035;-74
2021/04/21 16:34:03;;;;;;;17.35;8.68;;;;;;;16.07;38.30;100126.78;5095447;57;1143300;-74
2021/04/21 16:39:09;;;;;;;7.03;6.17;;;;;;;16.02;37.71;100134.97;5095170;57;1141122;-76
2021/04/21 16:44:14;;;;;;;10.97;3.10;;;;;;;16.03;37.86;100132.63;5095500;57;1138517;-75
2021/04/21 16:49:22;;;;;;;7.73;4.03;;;;;;;16.09;38.68;100118.13;5095393;57;1140561;-74
2021/04/21 16:54:28;;;;;;;5.27;2.93;;;;;;;16.16;38.82;100121.81;5095710;57;1138440;-74
2021/04/21 16:59:33;;;;;;;6.23;2.67;;;;;;;16.17;38.15;100119.98;5095121;57;1138825;-74
2021/04/21 17:04:40;;;;;;;4.33;3.03;;;;;;;16.09;38.59;100118.63;5095747;57;1138410;-75
2021/04/21 17:09:45;;;;;;;4.03;2.80;;;;;;;16.04;38.36;100120.97;5095298;57;1138606;-74
2021/04/21 17:15:06;;;;;;;6.00;3.37;;;;;;;15.96;38.83;100124.94;5095870;57;1138392;-75
2021/04/21 17:20:16;;;;;;;7.47;3.30;;;;;;;15.86;38.52;100121.58;5095039;57;1138635;-74
2021/04/21 17:25:25;;;;;;;5.87;4.33;;;;;;;15.77;38.91;100126.88;5095785;57;1139089;-74
2021/04/21 17:30:38;;;;;;;37.47;23.97;;;;;;;15.69;39.10;100123.36;5095177;57;1138618;-74
2021/04/21 17:35:43;;;;;;;7.47;4.23;;;;;;;15.61;38.36;100121.98;5095628;57;1142940;-74
2021/04/21 17:40:49;;;;;;;8.70;3.17;;;;;;;15.52;38.34;100118.43;5094863;57;1138715;-74
2021/04/21 17:46:03;;;;;;;6.53;3.80;;;;;;;15.41;38.45;100122.72;5095934;57;1138665;-75
2021/04/21 17:51:13;;;;;;;9.40;3.97;;;;;;;15.27;38.86;100121.98;4931538;59;1138698;-74
2021/04/21 17:56:21;;;;;;;7.60;3.47;;;;;;;15.18;39.21;100128.25;5095210;57;1138389;-74
2021/04/21 18:01:26;;;;;;;11.03;3.50;;;;;;;15.05;39.80;100135.34;5095077;57;1138407;-74
2021/04/21 18:06:32;;;;;;;16.13;5.73;;;;;;;14.92;40.07;100134.92;5095067;57;1140720;-74
2021/04/21 18:11:38;;;;;;;14.80;6.67;;;;;;;14.87;40.44;100136.71;4926050;58;1141235;-74
2021/04/21 18:16:44;;;;;;;12.20;6.70;;;;;;;14.81;40.54;100143.17;5095207;57;1140982;-74
2021/04/21 18:21:51;;;;;;;21.50;8.47;;;;;;;14.74;40.87;100134.95;5095867;57;1140956;-73
2021/04/21 18:26:57;;;;;;;18.07;6.58;;;;;;;14.68;41.46;100143.55;5095308;57;1141207;-74
2021/04/21 18:32:03;;;;;;;15.05;6.37;;;;;;;14.62;41.91;100152.17;5095005;57;1140950;-74
2021/04/21 18:37:08;;;;;;;28.83;10.20;;;;;;;14.60;42.52;100147.48;5095403;57;1141349;-74
2021/04/21 18:42:14;;;;;;;18.17;8.17;;;;;;;14.64;42.84;100152.86;5095477;57;1143492;-74
2021/04/21 18:47:22;;;;;;;45.30;18.73;;;;;;;14.66;42.98;100150.38;5095097;57;1141261;-74
2021/04/21 18:52:28;;;;;;;33.40;11.80;;;;;;;14.65;43.17;100155.37;5095558;57;1143365;-75
2021/04/21 18:57:34;;;;;;;10.67;5.97;;;;;;;14.63;43.33;100152.52;5072171;57;1143068;-75
2021/04/21 19:02:39;;;;;;;14.83;5.33;;;;;;;14.60;43.31;100168.78;5084795;56;1141207;-73
2021/04/21 19:07:46;;;;;;;21.97;11.63;;;;;;;14.47;42.79;100185.14;5093039;57;1140993;-75
2021/04/21 19:12:54;;;;;;;26.13;9.90;;;;;;;14.19;44.32;100212.75;5052766;56;1143166;-76
2021/04/21 19:18:06;;;;;;;20.82;11.28;;;;;;;14.01;46.04;100217.55;5077704;56;1140926;-77
2021/04/21 19:23:16;;;;;;;23.63;15.50;;;;;;;13.74;48.72;100236.15;5053401;57;1143133;-76
2021/04/21 19:28:22;;;;;;;16.90;11.70;;;;;;;13.45;51.54;100243.34;5068687;56;1143097;-75
2021/04/21 19:33:27;;;;;;;14.13;10.57;;;;;;;13.20;51.73;100252.29;5065734;56;1143056;-72
2021/04/21 19:38:33;;;;;;;18.20;11.00;;;;;;;13.00;53.48;100256.75;5095101;57;1143381;-73
2021/04/21 19:43:39;;;;;;;28.67;13.43;;;;;;;12.89;53.11;100267.52;5011584;58;1143317;-74
2021/04/21 19:48:45;;;;;;;20.87;14.47;;;;;;;12.65;53.20;100276.39;5064937;57;1143214;-74
2021/04/21 19:53:51;;;;;;;17.47;11.77;;;;;;;12.49;53.24;100289.34;5095981;57;1143308;-73
2021/04/21 19:58:57;;;;;;;21.37;14.80;;;;;;;12.36;53.86;100301.53;5095785;57;1143114;-75
2021/04/21 20:04:03;;;;;;;15.43;11.10;;;;;;;12.32;54.08;100293.49;5096336;57;1143047;-75
2021/04/21 20:09:09;;;;;;;16.77;11.12;;;;;;;12.17;54.99;100295.68;5095826;57;1143048;-74
2021/04/21 20:14:15;;;;;;;22.37;12.47;;;;;;;12.09;55.23;100292.84;5096062;57;1142581;-72
2021/04/21 20:19:22;;;;;;;25.77;13.80;;;;;;;12.07;55.36;100303.26;5095416;57;1142770;-74
2021/04/21 20:24:28;;;;;;;14.47;9.43;;;;;;;12.04;55.12;100303.03;5096277;57;1142705;-74
2021/04/21 20:29:33;;;;;;;21.43;11.30;;;;;;;12.02;55.58;100304.97;5096260;57;1140580;-72
2021/04/21 20:34:42;;;;;;;13.97;10.37;;;;;;;11.96;55.56;100301.03;5013828;57;1142756;-71
2021/04/21 20:39:46;;;;;;;21.27;14.03;;;;;;;11.85;55.73;100310.41;5081246;57;1142939;-73
2021/04/21 20:44:53;;;;;;;28.53;18.03;;;;;;;11.77;56.19;100315.51;5089831;56;1142773;-73
2021/04/21 20:49:58;;;;;;;18.50;11.47;;;;;;;11.59;56.68;100331.16;5083926;57;1142771;-72
2021/04/21 20:55:06;;;;;;;30.72;17.55;;;;;;;11.37;57.97;100337.05;5057541;56;1142850;-72
2021/04/21 21:00:15;;;;;;;26.57;15.23;;;;;;;11.16;58.72;100343.16;5057199;57;1142984;-74
2021/04/21 21:05:22;;;;;;;38.70;19.40;;;;;;;11.07;59.05;100341.77;5091086;57;1142837;-72
2021/04/21 21:10:28;;;;;;;32.03;17.87;;;;;;;11.10;59.38;100342.36;5076394;56;1142802;-74
2021/04/21 21:15:34;;;;;;;40.47;20.80;;;;;;;11.19;59.79;100334.12;5084127;56;1142739;-73
2021/04/21 21:20:39;;;;;;;48.07;29.23;;;;;;;11.20;60.06;100331.35;5084199;56;1142767;-74
2021/04/21 21:25:45;;;;;;;49.07;24.83;;;;;;;11.15;60.47;100332.20;5084411;56;1142740;-72
2021/04/21 21:30:50;;;;;;;29.40;15.13;;;;;;;11.07;60.60;100331.18;5084124;56;1142734;-74
2021/04/21 21:35:56;;;;;;;27.13;15.03;;;;;;;10.97;61.20;100334.23;5084404;56;1142898;-74
2021/04/21 21:41:02;;;;;;;37.38;16.50;;;;;;;10.84;61.44;100336.57;5084303;56;1142737;-72
2021/04/21 21:46:08;;;;;;;29.13;16.63;;;;;;;10.76;61.92;100335.02;5084177;56;1142709;-74
2021/04/21 21:51:16;;;;;;;39.07;16.17;;;;;;;10.75;61.84;100335.13;5084152;56;1142634;-73
2021/04/21 21:56:21;;;;;;;29.97;14.67;;;;;;;10.73;61.85;100324.67;5084094;56;1142660;-74
2021/04/21 22:01:27;;;;;;;21.70;12.83;;;;;;;10.74;61.89;100336.94;5084133;56;1142708;-72
2021/04/21 22:06:35;;;;;;;28.90;14.87;;;;;;;10.67;61.67;100342.38;5084026;56;1142698;-72
2021/04/21 22:11:41;;;;;;;27.97;15.93;;;;;;;10.62;61.97;100339.73;5084103;56;1143155;-74
2021/04/21 22:16:47;;;;;;;17.27;10.83;;;;;;;10.57;61.93;100348.87;5084108;56;1143326;-74
2021/04/21 22:21:53;;;;;;;21.33;12.17;;;;;;;10.47;61.89;100355.03;5084359;56;1143383;-73
2021/04/21 22:26:58;;;;;;;15.60;9.80;;;;;;;10.49;62.22;100353.11;5084045;56;1150794;-75
2021/04/21 22:32:05;;;;;;;23.80;11.90;;;;;;;10.46;61.96;100359.48;5084560;56;1141433;-72
2021/04/21 22:37:11;;;;;;;21.67;12.47;;;;;;;10.42;61.88;100357.19;5084161;56;1143110;-73
2021/04/21 22:42:16;;;;;;;17.07;9.57;;;;;;;10.38;61.84;100354.45;5084276;56;1143364;-73
2021/04/21 22:47:22;;;;;;;20.87;9.87;;;;;;;10.31;61.53;100350.59;5084079;56;1141017;-72
2021/04/21 22:52:28;;;;;;;14.97;7.83;;;;;;;10.19;61.37;100357.22;5084778;56;1141049;-73
2021/04/21 22:57:34;;;;;;;20.30;9.40;;;;;;;10.11;60.89;100354.29;5084662;56;1141085;-73
2021/04/21 23:02:40;;;;;;;17.17;8.70;;;;;;;9.97;60.97;100365.09;5085005;56;1141021;-72
2021/04/21 23:07:46;;;;;;;13.67;8.30;;;;;;;9.99;61.22;100367.14;5084994;56;1139095;-74
2021/04/21 23:12:53;;;;;;;11.90;7.80;;;;;;;10.06;61.27;100371.00;5085151;56;1138871;-73
2021/04/21 23:17:59;;;;;;;12.27;8.17;;;;;;;10.08;61.33;100372.20;5065284;56;1141178;-74
2021/04/21 23:23:05;;;;;;;15.10;7.30;;;;;;;10.02;61.77;100377.95;5084908;56;1141197;-72
2021/04/21 23:28:11;;;;;;;15.13;6.17;;;;;;;9.84;60.64;100383.70;5084746;56;1141199;-72
2021/04/21 23:33:16;;;;;;;10.95;4.78;;;;;;;9.73;60.00;100378.88;5085145;56;1139157;-72
2021/04/21 23:38:22;;;;;;;8.63;4.17;;;;;;;9.69;60.19;100379.58;5075288;56;1139109;-73
2021/04/21 23:43:28;;;;;;;9.07;3.87;;;;;;;9.62;59.89;100377.06;5073117;56;1136860;-72
2021/04/21 23:48:34;;;;;;;10.53;3.00;;;;;;;9.46;59.34;100380.02;5069324;56;1136821;-71
2021/04/21 23:53:39;;;;;;;11.17;2.53;;;;;;;9.32;58.77;100394.70;5069000;56;1139012;-72
2021/04/21 23:58:45;;;;;;;5.05;1.55;;;;;;;9.21;57.64;100398.61;5068878;56;1138860;-73
